sensor_id;sensor_type;location;lat;lon;timestamp;pressure;altitude;pressure_sealevel;temperature
12126;BMP180;6126;57.908;16.490;2023-07-31T00:00:36;100213.31;;;16.38
12126;BMP180;6126;57.908;16.490;2023-07-31T00:03:02;100201.94;;;16.37
12126;BMP180;6126;57.908;16.490;2023-07-31T00:05:28;100214.28;;;16.37
12126;BMP180;6126;57.908;16.490;2023-07-31T00:07:54;100205.75;;;16.34
12126;BMP180;6126;57.908;16.490;2023-07-31T00:10:20;100205.75;;;16.34
12126;BMP180;6126;57.908;16.490;2023-07-31T00:12:47;100215.97;;;16.38
12126;BMP180;6126;57.908;16.490;2023-07-31T00:15:14;100210.34;;;16.42
12126;BMP180;6126;57.908;16.490;2023-07-31T00:17:40;100203.78;;;16.48
12126;BMP180;6126;57.908;16.490;2023-07-31T00:20:07;100208.59;;;16.54
12126;BMP180;6126;57.908;16.490;2023-07-31T00:22:34;100203.09;;;16.57
12126;BMP180;6126;57.908;16.490;2023-07-31T00:25:00;100215.84;;;16.63
12126;BMP180;6126;57.908;16.490;2023-07-31T00:27:25;100202.28;;;16.67
12126;BMP180;6126;57.908;16.490;2023-07-31T00:29:51;100209.97;;;16.70
12126;BMP180;6126;57.908;16.490;2023-07-31T00:32:17;100214.16;;;16.72
12126;BMP180;6126;57.908;16.490;2023-07-31T00:34:43;100213.81;;;16.77
12126;BMP180;6126;57.908;16.490;2023-07-31T00:37:09;100207.38;;;16.81
12126;BMP180;6126;57.908;16.490;2023-07-31T00:39:35;100204.50;;;16.84
12126;BMP180;6126;57.908;16.490;2023-07-31T00:42:01;100208.69;;;16.86
12126;BMP180;6126;57.908;16.490;2023-07-31T00:44:27;100212.91;;;16.89
12126;BMP180;6126;57.908;16.490;2023-07-31T00:46:54;100209.06;;;16.93
12126;BMP180;6126;57.908;16.490;2023-07-31T00:49:22;100200.78;;;16.97
12126;BMP180;6126;57.908;16.490;2023-07-31T00:51:48;100201.53;;;16.99
12126;BMP180;6126;57.908;16.490;2023-07-31T00:54:14;100193.72;;;16.97
12126;BMP180;6126;57.908;16.490;2023-07-31T00:56:40;100200.66;;;16.98
12126;BMP180;6126;57.908;16.490;2023-07-31T00:59:07;100194.44;;;16.99
12126;BMP180;6126;57.908;16.490;2023-07-31T01:01:33;100201.53;;;16.99
12126;BMP180;6126;57.908;16.490;2023-07-31T01:03:59;100204.16;;;16.99
12126;BMP180;6126;57.908;16.490;2023-07-31T01:07:02;100198.88;;;16.99
12126;BMP180;6126;57.908;16.490;2023-07-31T01:12:15;100213.03;;;16.98
12126;BMP180;6126;57.908;16.490;2023-07-31T01:15:07;100212.09;;;16.99
12126;BMP180;6126;57.908;16.490;2023-07-31T01:17:37;100212.91;;;16.99
12126;BMP180;6126;57.908;16.490;2023-07-31T01:20:12;100198.88;;;16.99
12126;BMP180;6126;57.908;16.490;2023-07-31T01:26:12;100200.78;;;16.97
12126;BMP180;6126;57.908;16.490;2023-07-31T01:28:59;100213.41;;;16.94
12126;BMP180;6126;57.908;16.490;2023-07-31T01:31:30;100206.56;;;16.91
12126;BMP180;6126;57.908;16.490;2023-07-31T01:34:01;100204.97;;;16.89
12126;BMP180;6126;57.908;16.490;2023-07-31T01:36:28;100210.38;;;16.87
12126;BMP180;6126;57.908;16.490;2023-07-31T01:39:02;100198.97;;;16.87
12126;BMP180;6126;57.908;16.490;2023-07-31T01:41:28;100195.75;;;16.83
12126;BMP180;6126;57.908;16.490;2023-07-31T01:43:54;100195.84;;;16.82
12126;BMP180;6126;57.908;16.490;2023-07-31T01:46:20;100191.63;;;16.79
12126;BMP180;6126;57.908;16.490;2023-07-31T01:48:45;100189.84;;;16.80
12126;BMP180;6126;57.908;16.490;2023-07-31T01:51:11;100187.34;;;16.78
12126;BMP180;6126;57.908;16.490;2023-07-31T01:53:37;100189.25;;;16.76
12126;BMP180;6126;57.908;16.490;2023-07-31T01:56:03;100194.75;;;16.73
12126;BMP180;6126;57.908;16.490;2023-07-31T01:58:29;100199.19;;;16.73
12126;BMP180;6126;57.908;16.490;2023-07-31T02:00:55;100201.69;;;16.74
12126;BMP180;6126;57.908;16.490;2023-07-31T02:03:21;100195.47;;;16.75
12126;BMP180;6126;57.908;16.490;2023-07-31T02:05:49;100190.22;;;16.75
12126;BMP180;6126;57.908;16.490;2023-07-31T02:08:16;100183.97;;;16.76
12126;BMP180;6126;57.908;16.490;2023-07-31T02:10:42;100197.97;;;16.77
12126;BMP180;6126;57.908;16.490;2023-07-31T02:13:08;100196.31;;;16.76
12126;BMP180;6126;57.908;16.490;2023-07-31T02:15:34;100203.41;;;16.75
12126;BMP180;6126;57.908;16.490;2023-07-31T02:18:00;100201.69;;;16.74
12126;BMP180;6126;57.908;16.490;2023-07-31T02:20:26;100199.19;;;16.73
12126;BMP180;6126;57.908;16.490;2023-07-31T02:22:52;100194.75;;;16.73
12126;BMP180;6126;57.908;16.490;2023-07-31T02:25:18;100190.41;;;16.72
12126;BMP180;6126;57.908;16.490;2023-07-31T02:27:44;100189.81;;;16.69
12126;BMP180;6126;57.908;16.490;2023-07-31T02:30:10;100196.28;;;16.65
12126;BMP180;6126;57.908;16.490;2023-07-31T02:32:36;100200.69;;;16.65
12126;BMP180;6126;57.908;16.490;2023-07-31T02:35:02;100199.03;;;16.64
12126;BMP180;6126;57.908;16.490;2023-07-31T02:37:28;100197.38;;;16.63
12126;BMP180;6126;57.908;16.490;2023-07-31T02:39:55;100188.81;;;16.59
12126;BMP180;6126;57.908;16.490;2023-07-31T02:42:21;100196.38;;;16.53
12126;BMP180;6126;57.908;16.490;2023-07-31T02:44:46;100195.13;;;16.46
12126;BMP180;6126;57.908;16.490;2023-07-31T02:47:12;100193.94;;;16.39
12126;BMP180;6126;57.908;16.490;2023-07-31T02:49:38;100195.19;;;16.34
12126;BMP180;6126;57.908;16.490;2023-07-31T02:52:04;100199.88;;;16.30
12126;BMP180;6126;57.908;16.490;2023-07-31T02:54:31;100200.09;;;16.27
12126;BMP180;6126;57.908;16.490;2023-07-31T02:56:57;100203.81;;;16.25
12126;BMP180;6126;57.908;16.490;2023-07-31T02:59:22;100206.06;;;16.18
12126;BMP180;6126;57.908;16.490;2023-07-31T03:01:48;100214.16;;;16.15
12126;BMP180;6126;57.908;16.490;2023-07-31T03:04:14;100220.91;;;16.19
12126;BMP180;6126;57.908;16.490;2023-07-31T03:06:40;100218.88;;;16.23
12126;BMP180;6126;57.908;16.490;2023-07-31T03:09:06;100215.91;;;16.27
12126;BMP180;6126;57.908;16.490;2023-07-31T03:11:32;100214.03;;;16.29
12126;BMP180;6126;57.908;16.490;2023-07-31T03:13:57;100201.06;;;16.26
12126;BMP180;6126;57.908;16.490;2023-07-31T03:16:23;100206.06;;;16.18
12126;BMP180;6126;57.908;16.490;2023-07-31T03:18:49;100195.41;;;16.07
12126;BMP180;6126;57.908;16.490;2023-07-31T03:21:15;100196.94;;;15.99
12126;BMP180;6126;57.908;16.490;2023-07-31T03:23:41;100187.91;;;15.91
12126;BMP180;6126;57.908;16.490;2023-07-31T03:26:09;100187.41;;;15.86
12126;BMP180;6126;57.908;16.490;2023-07-31T03:28:35;100194.56;;;15.84
12126;BMP180;6126;57.908;16.490;2023-07-31T03:31:01;100193.72;;;15.83
12126;BMP180;6126;57.908;16.490;2023-07-31T03:33:26;100210.16;;;15.87
12126;BMP180;6126;57.908;16.490;2023-07-31T03:35:53;100204.16;;;15.85
12126;BMP180;6126;57.908;16.490;2023-07-31T03:38:19;100205.22;;;15.82
12126;BMP180;6126;57.908;16.490;2023-07-31T03:40:45;100197.56;;;15.79
12126;BMP180;6126;57.908;16.490;2023-07-31T03:43:12;100205.78;;;15.75
12126;BMP180;6126;57.908;16.490;2023-07-31T03:45:38;100208.31;;;15.76
12126;BMP180;6126;57.908;16.490;2023-07-31T03:48:04;100210.59;;;15.81
12126;BMP180;6126;57.908;16.490;2023-07-31T03:50:31;100201.41;;;15.86
12126;BMP180;6126;57.908;16.490;2023-07-31T03:52:56;100195.81;;;15.91
12126;BMP180;6126;57.908;16.490;2023-07-31T03:55:22;100193.78;;;15.94
12126;BMP180;6126;57.908;16.490;2023-07-31T03:57:48;100193.91;;;15.93
12126;BMP180;6126;57.908;16.490;2023-07-31T04:00:14;100185.28;;;15.91
12126;BMP180;6126;57.908;16.490;2023-07-31T04:02:40;100189.56;;;15.92
12126;BMP180;6126;57.908;16.490;2023-07-31T04:05:07;100193.47;;;15.99
12126;BMP180;6126;57.908;16.490;2023-07-31T04:07:33;100194.56;;;16.07
12126;BMP180;6126;57.908;16.490;2023-07-31T04:09:59;100187.09;;;16.13
12126;BMP180;6126;57.908;16.490;2023-07-31T04:12:26;100189.50;;;16.16
12126;BMP180;6126;57.908;16.490;2023-07-31T04:14:51;100183.91;;;16.21
12126;BMP180;6126;57.908;16.490;2023-07-31T04:17:18;100179.25;;;16.24
12126;BMP180;6126;57.908;16.490;2023-07-31T04:19:44;100183.94;;;16.32
12126;BMP180;6126;57.908;16.490;2023-07-31T04:22:10;100192.22;;;16.38
12126;BMP180;6126;57.908;16.490;2023-07-31T04:24:35;100196.19;;;16.43
12126;BMP180;6126;57.908;16.490;2023-07-31T04:27:01;100198.41;;;16.49
12126;BMP180;6126;57.908;16.490;2023-07-31T04:29:27;100188.47;;;16.53
12126;BMP180;6126;57.908;16.490;2023-07-31T04:31:53;100192.31;;;16.60
12126;BMP180;6126;57.908;16.490;2023-07-31T04:34:19;100199.63;;;16.67
12126;BMP180;6126;57.908;16.490;2023-07-31T04:36:45;100200.25;;;16.70
12126;BMP180;6126;57.908;16.490;2023-07-31T04:39:11;100208.88;;;16.72
12126;BMP180;6126;57.908;16.490;2023-07-31T04:41:36;100203.41;;;16.75
12126;BMP180;6126;57.908;16.490;2023-07-31T04:44:02;100201.69;;;16.74
12126;BMP180;6126;57.908;16.490;2023-07-31T04:46:31;100202.53;;;16.75
12126;BMP180;6126;57.908;16.490;2023-07-31T04:48:57;100205.06;;;16.76
12126;BMP180;6126;57.908;16.490;2023-07-31T04:51:23;100207.38;;;16.81
12126;BMP180;6126;57.908;16.490;2023-07-31T04:53:49;100197.66;;;16.81
12126;BMP180;6126;57.908;16.490;2023-07-31T04:56:16;100196.91;;;16.79
12126;BMP180;6126;57.908;16.490;2023-07-31T04:58:42;100191.53;;;16.81
12126;BMP180;6126;57.908;16.490;2023-07-31T05:01:07;100201.72;;;16.85
12126;BMP180;6126;57.908;16.490;2023-07-31T05:03:33;100200.53;;;16.89
12126;BMP180;6126;57.908;16.490;2023-07-31T05:05:59;100192.38;;;16.92
12126;BMP180;6126;57.908;16.490;2023-07-31T05:08:25;100207.03;;;16.96
12126;BMP180;6126;57.908;16.490;2023-07-31T05:10:51;100195.28;;;17.00
12126;BMP180;6126;57.908;16.490;2023-07-31T05:13:17;100201.28;;;17.02
12126;BMP180;6126;57.908;16.490;2023-07-31T05:15:43;100201.03;;;17.05
12126;BMP180;6126;57.908;16.490;2023-07-31T05:18:09;100202.59;;;17.07
12126;BMP180;6126;57.908;16.490;2023-07-31T05:20:34;100197.19;;;17.09
12126;BMP180;6126;57.908;16.490;2023-07-31T05:23:00;100198.91;;;17.10
12126;BMP180;6126;57.908;16.490;2023-07-31T05:25:26;100193.72;;;17.08
12126;BMP180;6126;57.908;16.490;2023-07-31T05:27:52;100191.91;;;17.09
12126;BMP180;6126;57.908;16.490;2023-07-31T05:30:18;100194.56;;;17.09
12126;BMP180;6126;57.908;16.490;2023-07-31T05:32:44;100201.53;;;17.10
12126;BMP180;6126;57.908;16.490;2023-07-31T05:35:10;100195.31;;;17.11
12126;BMP180;6126;57.908;16.490;2023-07-31T05:37:36;100209.25;;;17.13
12126;BMP180;6126;57.908;16.490;2023-07-31T05:40:02;100206.50;;;17.14
12126;BMP180;6126;57.908;16.490;2023-07-31T05:42:28;100217.88;;;17.15
12126;BMP180;6126;57.908;16.490;2023-07-31T05:44:54;100219.56;;;17.16
12126;BMP180;6126;57.908;16.490;2023-07-31T05:47:20;100216.91;;;17.16
12126;BMP180;6126;57.908;16.490;2023-07-31T05:49:45;100212.47;;;17.16
12126;BMP180;6126;57.908;16.490;2023-07-31T05:52:11;100206.25;;;17.17
12126;BMP180;6126;57.908;16.490;2023-07-31T05:54:37;100211.53;;;17.17
12126;BMP180;6126;57.908;16.490;2023-07-31T05:57:03;100209.50;;;17.21
12126;BMP180;6126;57.908;16.490;2023-07-31T05:59:29;100210.22;;;17.23
12126;BMP180;6126;57.908;16.490;2023-07-31T06:01:59;100211.66;;;17.27
12126;BMP180;6126;57.908;16.490;2023-07-31T06:04:25;100214.78;;;17.31
12126;BMP180;6126;57.908;16.490;2023-07-31T06:06:51;100218.13;;;17.33
12126;BMP180;6126;57.908;16.490;2023-07-31T06:09:17;100216.22;;;17.35
12126;BMP180;6126;57.908;16.490;2023-07-31T06:11:43;100204.69;;;17.36
12126;BMP180;6126;57.908;16.490;2023-07-31T06:14:09;100210.56;;;17.40
12126;BMP180;6126;57.908;16.490;2023-07-31T06:16:35;100206.00;;;17.42
12126;BMP180;6126;57.908;16.490;2023-07-31T06:19:01;100212.84;;;17.44
12126;BMP180;6126;57.908;16.490;2023-07-31T06:21:27;100211.66;;;17.48
12126;BMP180;6126;57.908;16.490;2023-07-31T06:23:53;100209.72;;;17.50
12126;BMP180;6126;57.908;16.490;2023-07-31T06:26:19;100214.78;;;17.53
12126;BMP180;6126;57.908;16.490;2023-07-31T06:28:45;100212.59;;;17.58
12126;BMP180;6126;57.908;16.490;2023-07-31T06:31:12;100212.38;;;17.61
12126;BMP180;6126;57.908;16.490;2023-07-31T06:33:37;100214.28;;;17.59
12126;BMP180;6126;57.908;16.490;2023-07-31T06:36:04;100209.00;;;17.59
12126;BMP180;6126;57.908;16.490;2023-07-31T06:38:30;100207.09;;;17.61
12126;BMP180;6126;57.908;16.490;2023-07-31T06:40:56;100209.50;;;17.64
12126;BMP180;6126;57.908;16.490;2023-07-31T06:43:21;100199.75;;;17.64
12126;BMP180;6126;57.908;16.490;2023-07-31T06:45:47;100202.25;;;17.66
12126;BMP180;6126;57.908;16.490;2023-07-31T06:48:16;100203.97;;;17.67
12126;BMP180;6126;57.908;16.490;2023-07-31T06:50:42;100199.50;;;17.67
12126;BMP180;6126;57.908;16.490;2023-07-31T06:53:08;100201.06;;;17.70
12126;BMP180;6126;57.908;16.490;2023-07-31T06:55:34;100206.94;;;17.73
12126;BMP180;6126;57.908;16.490;2023-07-31T06:58:00;100200.72;;;17.74
12126;BMP180;6126;57.908;16.490;2023-07-31T07:00:27;100200.47;;;17.77
12126;BMP180;6126;57.908;16.490;2023-07-31T07:02:52;100203.69;;;17.81
12126;BMP180;6126;57.908;16.490;2023-07-31T07:05:19;100201.03;;;17.81
12126;BMP180;6126;57.908;16.490;2023-07-31T07:07:45;100192.03;;;17.83
12126;BMP180;6126;57.908;16.490;2023-07-31T07:10:11;100191.41;;;17.90
12126;BMP180;6126;57.908;16.490;2023-07-31T07:12:37;100194.38;;;17.97
12126;BMP180;6126;57.908;16.490;2023-07-31T07:15:03;100192.13;;;18.03
12126;BMP180;6126;57.908;16.490;2023-07-31T07:17:30;100198.59;;;18.10
12126;BMP180;6126;57.908;16.490;2023-07-31T07:20:00;100200.75;;;18.16
12126;BMP180;6126;57.908;16.490;2023-07-31T07:22:27;100198.56;;;18.21
12126;BMP180;6126;57.908;16.490;2023-07-31T07:24:53;100196.63;;;18.23
12126;BMP180;6126;57.908;16.490;2023-07-31T07:27:20;100201.91;;;18.23
12126;BMP180;6126;57.908;16.490;2023-07-31T07:29:46;100206.38;;;18.22
12126;BMP180;6126;57.908;16.490;2023-07-31T07:32:12;100200.00;;;18.25
12126;BMP180;6126;57.908;16.490;2023-07-31T07:34:38;100201.28;;;18.30
12126;BMP180;6126;57.908;16.490;2023-07-31T07:37:05;100197.56;;;18.33
12126;BMP180;6126;57.908;16.490;2023-07-31T07:39:31;100202.34;;;18.39
12126;BMP180;6126;57.908;16.490;2023-07-31T07:41:56;100192.09;;;18.45
12126;BMP180;6126;57.908;16.490;2023-07-31T07:44:22;100195.66;;;18.55
12126;BMP180;6126;57.908;16.490;2023-07-31T07:46:48;100195.03;;;18.62
12126;BMP180;6126;57.908;16.490;2023-07-31T07:49:14;100190.63;;;18.72
12126;BMP180;6126;57.908;16.490;2023-07-31T07:51:40;100200.00;;;18.76
12126;BMP180;6126;57.908;16.490;2023-07-31T07:54:06;100198.00;;;18.89
12126;BMP180;6126;57.908;16.490;2023-07-31T07:56:33;100182.91;;;19.00
12126;BMP180;6126;57.908;16.490;2023-07-31T07:58:59;100183.69;;;19.12
12126;BMP180;6126;57.908;16.490;2023-07-31T08:01:25;100181.84;;;19.12
12126;BMP180;6126;57.908;16.490;2023-07-31T08:03:51;100182.44;;;19.15
12126;BMP180;6126;57.908;16.490;2023-07-31T08:06:17;100182.59;;;19.23
12126;BMP180;6126;57.908;16.490;2023-07-31T08:08:43;100186.84;;;19.35
12126;BMP180;6126;57.908;16.490;2023-07-31T08:11:08;100182.34;;;19.56
12126;BMP180;6126;57.908;16.490;2023-07-31T08:13:34;100178.31;;;19.71
12126;BMP180;6126;57.908;16.490;2023-07-31T08:16:03;100175.88;;;19.88
12126;BMP180;6126;57.908;16.490;2023-07-31T08:18:31;100172.28;;;19.98
12126;BMP180;6126;57.908;16.490;2023-07-31T08:20:56;100162.69;;;20.16
12126;BMP180;6126;57.908;16.490;2023-07-31T08:23:22;100158.06;;;20.37
12126;BMP180;6126;57.908;16.490;2023-07-31T08:25:48;100155.25;;;20.47
12126;BMP180;6126;57.908;16.490;2023-07-31T08:28:16;100157.50;;;20.52
12126;BMP180;6126;57.908;16.490;2023-07-31T08:30:42;100159.47;;;20.59
12126;BMP180;6126;57.908;16.490;2023-07-31T08:33:08;100147.31;;;20.66
12126;BMP180;6126;57.908;16.490;2023-07-31T08:35:34;100142.94;;;20.74
12126;BMP180;6126;57.908;16.490;2023-07-31T08:38:00;100142.94;;;20.84
12126;BMP180;6126;57.908;16.490;2023-07-31T08:40:26;100140.00;;;20.96
12126;BMP180;6126;57.908;16.490;2023-07-31T08:42:55;100136.31;;;21.06
12126;BMP180;6126;57.908;16.490;2023-07-31T08:45:28;100126.03;;;21.21
12126;BMP180;6126;57.908;16.490;2023-07-31T08:47:56;100121.50;;;21.40
12126;BMP180;6126;57.908;16.490;2023-07-31T08:50:23;100121.69;;;21.56
12126;BMP180;6126;57.908;16.490;2023-07-31T08:52:51;100126.13;;;21.64
12126;BMP180;6126;57.908;16.490;2023-07-31T08:55:18;100118.97;;;21.65
12126;BMP180;6126;57.908;16.490;2023-07-31T08:57:51;100125.81;;;21.67
12126;BMP180;6126;57.908;16.490;2023-07-31T09:00:19;100121.44;;;21.76
12126;BMP180;6126;57.908;16.490;2023-07-31T09:03:02;100113.09;;;21.88
12126;BMP180;6126;57.908;16.490;2023-07-31T09:05:30;100116.91;;;22.03
12126;BMP180;6126;57.908;16.490;2023-07-31T09:07:57;100114.44;;;22.19
12126;BMP180;6126;57.908;16.490;2023-07-31T09:10:24;100098.28;;;22.37
12126;BMP180;6126;57.908;16.490;2023-07-31T09:12:51;100107.03;;;22.47
12126;BMP180;6126;57.908;16.490;2023-07-31T09:15:18;100113.13;;;22.40
12126;BMP180;6126;57.908;16.490;2023-07-31T09:17:44;100102.47;;;22.23
12126;BMP180;6126;57.908;16.490;2023-07-31T09:20:21;100110.59;;;22.04
12126;BMP180;6126;57.908;16.490;2023-07-31T09:22:48;100109.59;;;21.88
12126;BMP180;6126;57.908;16.490;2023-07-31T09:28:01;100106.91;;;21.70
12126;BMP180;6126;57.908;16.490;2023-07-31T09:30:27;100106.28;;;21.59
12126;BMP180;6126;57.908;16.490;2023-07-31T09:33:06;100108.59;;;21.45
12126;BMP180;6126;57.908;16.490;2023-07-31T09:35:35;100109.19;;;21.39
12126;BMP180;6126;57.908;16.490;2023-07-31T09:38:07;100103.75;;;21.40
12126;BMP180;6126;57.908;16.490;2023-07-31T09:40:39;100108.78;;;21.43
12126;BMP180;6126;57.908;16.490;2023-07-31T09:43:07;100102.97;;;21.48
12126;BMP180;6126;57.908;16.490;2023-07-31T09:45:37;100100.97;;;21.59
12126;BMP180;6126;57.908;16.490;2023-07-31T09:48:11;100096.59;;;21.85
12126;BMP180;6126;57.908;16.490;2023-07-31T09:50:40;100082.25;;;21.95
12126;BMP180;6126;57.908;16.490;2023-07-31T09:53:07;100086.72;;;21.94
12126;BMP180;6126;57.908;16.490;2023-07-31T09:55:35;100090.16;;;21.87
12126;BMP180;6126;57.908;16.490;2023-07-31T09:58:06;100090.00;;;21.71
12126;BMP180;6126;57.908;16.490;2023-07-31T10:00:33;100085.03;;;21.59
12126;BMP180;6126;57.908;16.490;2023-07-31T10:03:02;100094.34;;;21.46
12126;BMP180;6126;57.908;16.490;2023-07-31T10:05:46;100094.81;;;21.59
12126;BMP180;6126;57.908;16.490;2023-07-31T10:08:15;100086.47;;;21.54
12126;BMP180;6126;57.908;16.490;2023-07-31T10:10:44;100076.03;;;21.43
12126;BMP180;6126;57.908;16.490;2023-07-31T10:13:14;100079.31;;;21.28
12126;BMP180;6126;57.908;16.490;2023-07-31T10:15:41;100084.97;;;21.06
12126;BMP180;6126;57.908;16.490;2023-07-31T10:18:10;100095.97;;;20.84
12126;BMP180;6126;57.908;16.490;2023-07-31T10:20:37;100091.84;;;20.63
12126;BMP180;6126;57.908;16.490;2023-07-31T10:23:04;100090.03;;;20.45
12126;BMP180;6126;57.908;16.490;2023-07-31T10:25:31;100102.22;;;20.29
12126;BMP180;6126;57.908;16.490;2023-07-31T10:27:58;100103.59;;;20.14
12126;BMP180;6126;57.908;16.490;2023-07-31T10:30:29;100109.44;;;19.89
12126;BMP180;6126;57.908;16.490;2023-07-31T10:32:57;100100.06;;;19.67
12126;BMP180;6126;57.908;16.490;2023-07-31T10:35:23;100112.00;;;19.52
12126;BMP180;6126;57.908;16.490;2023-07-31T10:37:49;100111.84;;;19.44
12126;BMP180;6126;57.908;16.490;2023-07-31T10:40:28;100115.06;;;19.38
12126;BMP180;6126;57.908;16.490;2023-07-31T10:42:57;100109.03;;;19.36
12126;BMP180;6126;57.908;16.490;2023-07-31T10:45:38;100107.81;;;19.40
12126;BMP180;6126;57.908;16.490;2023-07-31T10:48:07;100105.59;;;19.54
12126;BMP180;6126;57.908;16.490;2023-07-31T10:50:45;100096.81;;;19.63
12126;BMP180;6126;57.908;16.490;2023-07-31T10:53:32;100089.59;;;19.75
12126;BMP180;6126;57.908;16.490;2023-07-31T10:56:06;100094.13;;;19.93
12126;BMP180;6126;57.908;16.490;2023-07-31T10:58:33;100092.16;;;20.13
12126;BMP180;6126;57.908;16.490;2023-07-31T11:01:03;100094.78;;;20.23
12126;BMP180;6126;57.908;16.490;2023-07-31T11:03:49;100090.75;;;20.19
12126;BMP180;6126;57.908;16.490;2023-07-31T11:06:18;100091.19;;;20.05
12126;BMP180;6126;57.908;16.490;2023-07-31T11:08:49;100100.53;;;19.90
12126;BMP180;6126;57.908;16.490;2023-07-31T11:11:18;100097.44;;;19.76
12126;BMP180;6126;57.908;16.490;2023-07-31T11:13:52;100100.88;;;19.67
12126;BMP180;6126;57.908;16.490;2023-07-31T11:16:22;100107.16;;;19.57
12126;BMP180;6126;57.908;16.490;2023-07-31T11:18:49;100109.06;;;19.46
12126;BMP180;6126;57.908;16.490;2023-07-31T11:21:20;100109.16;;;19.35
12126;BMP180;6126;57.908;16.490;2023-07-31T11:23:51;100107.88;;;19.29
12126;BMP180;6126;57.908;16.490;2023-07-31T11:26:19;100114.16;;;19.28
12126;BMP180;6126;57.908;16.490;2023-07-31T11:28:49;100112.63;;;19.26
12126;BMP180;6126;57.908;16.490;2023-07-31T11:31:16;100110.09;;;19.24
12126;BMP180;6126;57.908;16.490;2023-07-31T11:33:42;100112.75;;;19.24
12126;BMP180;6126;57.908;16.490;2023-07-31T11:36:19;100116.09;;;19.26
12126;BMP180;6126;57.908;16.490;2023-07-31T11:38:46;100110.69;;;19.28
12126;BMP180;6126;57.908;16.490;2023-07-31T11:41:17;100112.22;;;19.30
12126;BMP180;6126;57.908;16.490;2023-07-31T11:43:43;100117.66;;;19.29
12126;BMP180;6126;57.908;16.490;2023-07-31T11:46:09;100106.34;;;19.27
12126;BMP180;6126;57.908;16.490;2023-07-31T11:48:37;100110.69;;;19.28
12126;BMP180;6126;57.908;16.490;2023-07-31T11:51:13;100109.31;;;19.33
12126;BMP180;6126;57.908;16.490;2023-07-31T11:53:56;100104.88;;;19.43
12126;BMP180;6126;57.908;16.490;2023-07-31T11:56:24;100081.50;;;19.67
12126;BMP180;6126;57.908;16.490;2023-07-31T11:58:59;100087.69;;;19.95
12126;BMP180;6126;57.908;16.490;2023-07-31T12:01:28;100071.63;;;20.25
12126;BMP180;6126;57.908;16.490;2023-07-31T12:03:55;100073.97;;;20.56
12126;BMP180;6126;57.908;16.490;2023-07-31T12:06:21;100059.38;;;20.78
12126;BMP180;6126;57.908;16.490;2023-07-31T12:08:48;100053.69;;;21.00
12126;BMP180;6126;57.908;16.490;2023-07-31T12:11:14;100050.13;;;21.18
12126;BMP180;6126;57.908;16.490;2023-07-31T12:13:41;100059.28;;;21.33
12126;BMP180;6126;57.908;16.490;2023-07-31T12:16:07;100046.94;;;21.41
12126;BMP180;6126;57.908;16.490;2023-07-31T12:18:37;100046.19;;;21.49
12126;BMP180;6126;57.908;16.490;2023-07-31T12:21:09;100043.63;;;21.57
12126;BMP180;6126;57.908;16.490;2023-07-31T12:23:37;100041.66;;;21.59
12126;BMP180;6126;57.908;16.490;2023-07-31T12:26:13;100034.06;;;21.64
12126;BMP180;6126;57.908;16.490;2023-07-31T12:28:46;100033.97;;;21.73
12126;BMP180;6126;57.908;16.490;2023-07-31T12:31:18;100031.84;;;21.76
12126;BMP180;6126;57.908;16.490;2023-07-31T12:33:46;100034.66;;;21.75
12126;BMP180;6126;57.908;16.490;2023-07-31T12:36:16;100031.00;;;21.76
12126;BMP180;6126;57.908;16.490;2023-07-31T12:38:42;100026.50;;;21.76
12126;BMP180;6126;57.908;16.490;2023-07-31T12:41:09;100017.13;;;21.82
12126;BMP180;6126;57.908;16.490;2023-07-31T12:43:37;99998.19;;;21.85
12126;BMP180;6126;57.908;16.490;2023-07-31T12:46:03;99994.41;;;21.87
12126;BMP180;6126;57.908;16.490;2023-07-31T12:48:30;100000.69;;;21.86
12126;BMP180;6126;57.908;16.490;2023-07-31T12:50:56;100000.00;;;21.84
12126;BMP180;6126;57.908;16.490;2023-07-31T12:53:22;99998.34;;;21.83
12126;BMP180;6126;57.908;16.490;2023-07-31T12:55:48;99982.81;;;21.79
12126;BMP180;6126;57.908;16.490;2023-07-31T12:58:14;99988.69;;;21.82
12126;BMP180;6126;57.908;16.490;2023-07-31T13:00:40;99985.28;;;21.90
12126;BMP180;6126;57.908;16.490;2023-07-31T13:03:06;99981.81;;;21.97
12126;BMP180;6126;57.908;16.490;2023-07-31T13:05:32;99978.88;;;22.00
12126;BMP180;6126;57.908;16.490;2023-07-31T13:07:58;99971.88;;;21.99
12126;BMP180;6126;57.908;16.490;2023-07-31T13:10:24;99984.72;;;22.03
12126;BMP180;6126;57.908;16.490;2023-07-31T13:12:52;99981.88;;;22.05
12126;BMP180;6126;57.908;16.490;2023-07-31T13:15:18;99979.00;;;21.98
12126;BMP180;6126;57.908;16.490;2023-07-31T13:17:45;99976.00;;;21.76
12126;BMP180;6126;57.908;16.490;2023-07-31T13:20:11;99987.41;;;21.52
12126;BMP180;6126;57.908;16.490;2023-07-31T13:22:37;99988.38;;;21.33
12126;BMP180;6126;57.908;16.490;2023-07-31T13:25:03;99982.56;;;21.21
12126;BMP180;6126;57.908;16.490;2023-07-31T13:27:29;99983.72;;;21.09
12126;BMP180;6126;57.908;16.490;2023-07-31T13:29:55;99983.28;;;20.96
12126;BMP180;6126;57.908;16.490;2023-07-31T13:32:21;99985.84;;;20.88
12126;BMP180;6126;57.908;16.490;2023-07-31T13:34:48;99982.22;;;20.80
12126;BMP180;6126;57.908;16.490;2023-07-31T13:37:15;99972.88;;;20.76
12126;BMP180;6126;57.908;16.490;2023-07-31T13:39:42;99979.03;;;20.76
12126;BMP180;6126;57.908;16.490;2023-07-31T13:42:09;99976.91;;;20.80
12126;BMP180;6126;57.908;16.490;2023-07-31T13:44:41;99974.34;;;20.88
12126;BMP180;6126;57.908;16.490;2023-07-31T13:47:09;99969.59;;;20.91
12126;BMP180;6126;57.908;16.490;2023-07-31T13:49:36;99967.06;;;20.90
12126;BMP180;6126;57.908;16.490;2023-07-31T13:52:03;99962.06;;;20.87
12126;BMP180;6126;57.908;16.490;2023-07-31T13:54:29;99975.47;;;20.85
12126;BMP180;6126;57.908;16.490;2023-07-31T13:56:55;99964.03;;;20.85
12126;BMP180;6126;57.908;16.490;2023-07-31T13:59:21;99968.81;;;20.81
12126;BMP180;6126;57.908;16.490;2023-07-31T14:01:48;99962.25;;;20.76
12126;BMP180;6126;57.908;16.490;2023-07-31T14:04:14;99963.13;;;20.67
12126;BMP180;6126;57.908;16.490;2023-07-31T14:06:40;99958.72;;;20.58